createdAt,value
2023-04-06T14:48:13.174Z,95845.00
2023-04-06T14:50:59.125Z,95844.00
2023-04-06T14:53:45.574Z,95851.00
2023-04-06T14:56:32.301Z,95841.00
2023-04-06T14:59:17.791Z,95838.00
2023-04-06T15:02:04.517Z,95834.00
2023-04-06T15:04:51.071Z,95837.00
2023-04-06T15:07:37.999Z,95838.00
2023-04-06T15:10:23.855Z,95833.00
2023-04-06T15:13:09.472Z,95840.00
2023-04-06T15:15:55.001Z,95842.00
2023-04-06T15:18:41.607Z,95841.00
2023-04-06T15:21:28.111Z,95833.00
2023-04-06T15:24:13.874Z,95831.00
2023-04-06T15:26:59.919Z,95831.00
2023-04-06T15:29:46.297Z,95825.00
2023-04-06T15:32:31.938Z,95834.00
2023-04-06T15:35:17.895Z,95836.00
2023-04-06T15:38:03.910Z,95828.00
2023-04-06T15:40:50.457Z,95841.00
2023-04-06T15:43:36.115Z,95845.00
2023-04-06T15:46:22.690Z,95836.00
2023-04-06T15:49:09.552Z,95833.00
2023-04-06T15:51:55.887Z,95835.00
2023-04-06T15:54:41.777Z,95836.00
2023-04-06T15:57:28.285Z,95833.00
2023-04-06T16:00:15.612Z,95837.00
2023-04-06T16:03:01.495Z,95834.00
2023-04-06T16:05:59.138Z,95832.00
2023-04-06T16:08:50.328Z,95834.00
2023-04-06T16:11:36.917Z,95834.00
2023-04-06T16:14:22.826Z,95834.00
2023-04-06T16:17:08.281Z,95832.00
2023-04-06T16:19:53.944Z,95828.00
2023-04-06T16:22:39.360Z,95830.00
2023-04-06T16:25:25.268Z,95833.00
2023-04-06T16:28:11.453Z,95835.00
2023-04-06T16:30:57.925Z,95833.00
2023-04-06T16:33:43.698Z,95842.00
2023-04-06T16:36:31.991Z,95838.00
2023-04-06T16:39:17.702Z,95836.00
2023-04-06T16:42:03.568Z,95834.00
2023-04-06T16:44:49.519Z,95843.00
2023-04-06T16:47:35.764Z,95844.00
2023-04-06T16:50:21.753Z,95834.00
2023-04-06T16:53:07.574Z,95836.00
2023-04-06T16:55:53.333Z,95837.00
2023-04-06T16:58:39.521Z,95835.00
2023-04-06T17:01:28.028Z,95829.00
2023-04-06T17:04:13.896Z,95830.00
2023-04-06T17:06:59.873Z,95832.00
2023-04-06T17:09:45.685Z,95831.00
2023-04-06T17:12:32.018Z,95834.00
2023-04-06T17:15:18.252Z,95837.00
2023-04-06T17:18:04.543Z,95839.00
2023-04-06T17:20:50.509Z,95835.00
2023-04-06T17:23:37.246Z,95841.00
2023-04-06T17:26:22.886Z,95833.00
2023-04-06T17:29:08.374Z,95836.00
2023-04-06T17:31:53.797Z,95833.00
2023-04-06T17:34:39.434Z,95836.00
2023-04-06T17:37:25.255Z,95839.00
2023-04-06T17:40:11.448Z,95838.00
2023-04-06T17:42:57.467Z,95832.00
2023-04-06T17:45:43.447Z,95840.00
2023-04-06T17:48:30.077Z,95844.00
2023-04-06T17:51:19.019Z,95844.00
2023-04-06T17:54:05.646Z,95844.00
2023-04-06T17:56:53.691Z,95850.00
2023-04-06T17:59:43.876Z,95855.00
2023-04-06T18:02:31.852Z,95860.00
2023-04-06T18:05:19.044Z,95853.00
2023-04-06T18:08:05.054Z,95853.00
2023-04-06T18:10:51.316Z,95861.00
2023-04-06T18:13:39.349Z,95865.00
2023-04-06T18:16:27.052Z,95866.00
2023-04-06T18:19:13.713Z,95866.00
2023-04-06T18:22:00.496Z,95870.00
2023-04-06T18:24:46.624Z,95870.00
2023-04-06T18:27:33.969Z,95877.00
2023-04-06T18:30:20.078Z,95877.00
2023-04-06T18:33:06.577Z,95877.00
2023-04-06T18:35:52.436Z,95884.00
2023-04-06T18:38:44.590Z,95878.00
2023-04-06T18:41:30.767Z,95870.00
2023-04-06T18:44:16.885Z,95878.00
2023-04-06T18:47:02.824Z,95883.00
2023-04-06T18:49:49.951Z,95875.00
2023-04-06T18:52:36.001Z,95877.00
2023-04-06T18:55:22.509Z,95884.00
2023-04-06T18:58:08.012Z,95886.00
2023-04-06T19:00:55.543Z,95888.00
2023-04-06T19:03:42.296Z,95889.00
2023-04-06T19:06:28.558Z,95898.00
2023-04-06T19:09:14.394Z,95898.00
2023-04-06T19:12:01.279Z,95899.00
2023-04-06T19:14:52.096Z,95900.00
2023-04-06T19:17:38.196Z,95909.00
2023-04-06T19:20:26.968Z,95893.00
2023-04-06T19:23:13.797Z,95897.00
2023-04-06T19:25:59.380Z,95897.00
2023-04-06T19:28:46.206Z,95907.00
2023-04-06T19:31:32.319Z,95912.00
2023-04-06T19:34:18.819Z,95912.00
2023-04-06T19:37:06.264Z,95911.00
2023-04-06T19:39:52.328Z,95913.00
2023-04-06T19:42:38.836Z,95911.00
2023-04-06T19:45:24.517Z,95911.00
2023-04-06T19:48:11.035Z,95915.00
2023-04-06T19:50:57.592Z,95912.00
2023-04-06T19:53:43.488Z,95914.00
2023-04-06T19:56:31.457Z,95916.00
2023-04-06T19:59:18.201Z,95916.00
2023-04-06T20:02:04.596Z,95923.00
2023-04-06T20:04:53.435Z,95931.00
2023-04-06T20:07:40.568Z,95923.00
2023-04-06T20:10:28.108Z,95928.00
2023-04-06T20:13:14.628Z,95928.00
2023-04-06T20:16:00.571Z,95927.00
2023-04-06T20:18:46.020Z,95926.00
2023-04-06T20:21:32.266Z,95930.00
2023-04-06T20:24:19.088Z,95937.00
2023-04-06T20:27:04.812Z,95928.00
2023-04-06T20:29:50.758Z,95928.00
2023-04-06T20:32:36.557Z,95928.00
2023-04-06T20:35:23.434Z,95934.00
2023-04-06T20:38:09.197Z,95938.00
2023-04-06T20:40:58.276Z,95928.00
2023-04-06T20:43:43.945Z,95934.00
2023-04-06T20:46:30.021Z,95933.00
2023-04-06T20:49:16.852Z,95929.00
2023-04-06T20:52:03.165Z,95935.00
2023-04-06T20:54:50.594Z,95936.00
2023-04-06T20:57:36.297Z,95932.00
2023-04-06T21:00:22.433Z,95947.00
2023-04-06T21:03:08.855Z,95936.00
2023-04-06T21:05:57.379Z,95939.00
2023-04-06T21:08:43.196Z,95939.00
2023-04-06T21:11:31.013Z,95937.00
2023-04-06T21:14:19.505Z,95928.00
2023-04-06T21:17:06.957Z,95935.00
2023-04-06T21:19:53.600Z,95932.00
2023-04-06T21:22:39.527Z,95939.00
2023-04-06T21:25:25.643Z,95929.00
2023-04-06T21:28:11.668Z,95925.00
2023-04-06T21:30:58.256Z,95929.00
2023-04-06T21:33:44.607Z,95925.00
2023-04-06T21:36:33.148Z,95926.00
2023-04-06T21:39:18.876Z,95921.00
2023-04-06T21:42:06.518Z,95917.00
2023-04-06T21:44:52.220Z,95924.00
2023-04-06T21:47:38.470Z,95919.00
2023-04-06T21:50:24.416Z,95927.00
2023-04-06T21:53:09.875Z,95927.00
2023-04-06T21:55:55.765Z,95925.00
2023-04-06T21:58:41.819Z,95915.00
2023-04-06T22:01:28.362Z,95919.00
2023-04-06T22:04:14.127Z,95919.00
2023-04-06T22:07:00.353Z,95920.00
2023-04-06T22:09:50.849Z,95924.00
2023-04-06T22:12:37.992Z,95928.00
2023-04-06T22:15:24.602Z,95935.00
2023-04-06T22:18:10.354Z,95927.00
2023-04-06T22:20:56.504Z,95930.00
2023-04-06T22:23:42.481Z,95924.00
2023-04-06T22:26:29.597Z,95930.00
2023-04-06T22:29:15.458Z,95927.00
2023-04-06T22:32:01.164Z,95933.00
2023-04-06T22:34:47.180Z,95936.00
2023-04-06T22:37:33.553Z,95929.00
2023-04-06T22:40:19.646Z,95931.00
2023-04-06T22:43:05.371Z,95927.00
2023-04-06T22:45:50.692Z,95921.00
2023-04-06T22:48:36.082Z,95934.00
2023-04-06T22:51:21.660Z,95933.00
2023-04-06T22:54:09.448Z,95926.00
2023-04-06T22:56:55.959Z,95932.00
2023-04-06T22:59:41.684Z,95928.00
2023-04-06T23:02:27.753Z,95924.00
2023-04-06T23:05:13.700Z,95927.00
2023-04-06T23:07:59.128Z,95926.00
2023-04-06T23:10:44.896Z,95934.00
2023-04-06T23:13:30.793Z,95926.00
2023-04-06T23:16:16.486Z,95921.00
2023-04-06T23:19:02.609Z,95920.00
2023-04-06T23:21:48.682Z,95922.00
2023-04-06T23:24:34.953Z,95922.00
2023-04-06T23:27:21.348Z,95924.00
2023-04-06T23:30:08.133Z,95930.00
2023-04-06T23:32:54.286Z,95927.00
2023-04-06T23:35:40.459Z,95934.00
2023-04-06T23:38:26.289Z,95932.00
2023-04-06T23:41:18.110Z,95934.00
2023-04-06T23:44:04.357Z,95932.00
2023-04-06T23:46:50.336Z,95936.00
2023-04-06T23:49:36.333Z,95929.00
2023-04-06T23:52:22.515Z,95926.00
2023-04-06T23:55:08.956Z,95929.00
2023-04-06T23:57:55.545Z,95921.00
